Time;durP1;ratioP1;P1;durP2;ratioP2;P2;SDS_P1;SDS_P2;PMS_P1;PMS_P2;Temp;Humidity;BMP_temperature;BMP_pressure;BME280_temperature;BME280_humidity;BME280_pressure;Samples;Min_cycle;Max_cycle;Signal;HPM_P1;HPM_P2
2023/08/31 00:00:41;;;;;;;11.63;5.70;;;;;;;17.00;nan;99824.16;5029768;28;20033;-70
2023/08/31 00:03:06;;;;;;;10.97;5.27;;;;;;;17.06;nan;99826.75;5028126;28;20060;-69
2023/08/31 00:05:37;;;;;;;8.23;4.80;;;;;;;17.04;nan;99820.91;5029640;28;20063;-68
2023/08/31 00:08:06;;;;;;;6.50;5.00;;;;;;;17.00;nan;99826.81;5028247;28;20013;-68
2023/08/31 00:10:31;;;;;;;6.83;5.07;;;;;;;16.98;nan;99820.19;5027643;28;20026;-71
2023/08/31 00:12:57;;;;;;;7.60;5.55;;;;;;;16.90;nan;99810.16;5008555;28;20057;-69
2023/08/31 00:15:23;;;;;;;8.18;5.45;;;;;;;16.98;nan;99822.84;5010084;28;20026;-70
2023/08/31 00:17:49;;;;;;;11.73;5.82;;;;;;;16.92;nan;99808.00;5002245;28;20165;-70
2023/08/31 00:20:17;;;;;;;7.35;5.30;;;;;;;16.95;nan;99800.28;5021006;28;20041;-69
2023/08/31 00:22:42;;;;;;;7.70;5.15;;;;;;;16.88;nan;99783.03;5028422;28;20032;-70
2023/08/31 00:25:08;;;;;;;7.25;5.22;;;;;;;16.92;nan;99782.19;5029538;28;20041;-70
2023/08/31 00:27:34;;;;;;;7.63;5.03;;;;;;;16.90;nan;99781.69;5009612;28;20025;-70
2023/08/31 00:30:00;;;;;;;7.90;4.63;;;;;;;16.90;nan;99784.34;5028467;28;20450;-70
2023/08/31 00:32:25;;;;;;;6.32;4.60;;;;;;;16.95;nan;99791.47;5026860;28;20053;-70
2023/08/31 00:34:50;;;;;;;8.27;4.97;;;;;;;17.01;nan;99795.69;5027090;28;20032;-70
2023/08/31 00:37:16;;;;;;;7.43;5.10;;;;;;;16.83;nan;99767.91;5028409;28;20095;-68
2023/08/31 00:39:41;;;;;;;7.00;5.30;;;;;;;17.02;nan;99781.28;5028249;28;20067;-70
2023/08/31 00:42:07;;;;;;;10.23;5.55;;;;;;;17.04;nan;99792.44;5026864;28;20476;-69
2023/08/31 00:44:33;;;;;;;6.70;5.25;;;;;;;17.05;nan;99788.72;5027986;28;20048;-70
2023/08/31 00:46:58;;;;;;;6.72;4.80;;;;;;;17.00;nan;99792.22;5026912;28;20025;-70
2023/08/31 00:49:24;;;;;;;11.38;5.30;;;;;;;17.00;nan;99786.91;5028126;28;20022;-70
2023/08/31 00:51:50;;;;;;;7.38;5.10;;;;;;;17.10;nan;99804.63;5028228;28;20030;-70
2023/08/31 00:54:17;;;;;;;9.48;5.10;;;;;;;17.11;nan;99808.88;5027359;28;20752;-69
2023/08/31 00:56:43;;;;;;;7.55;5.43;;;;;;;17.04;nan;99808.41;5027909;28;20029;-71
2023/08/31 00:59:08;;;;;;;7.20;5.15;;;;;;;17.14;nan;99834.09;5027314;28;20030;-70
2023/08/31 01:01:42;;;;;;;6.80;5.30;;;;;;;17.14;nan;99842.09;5026482;28;20048;-71
2023/08/31 01:04:24;;;;;;;8.15;5.53;;;;;;;17.14;nan;99837.59;5015502;28;20566;-71
2023/08/31 01:07:02;;;;;;;9.82;5.40;;;;;;;17.13;nan;99849.28;5028980;28;20423;-70
2023/08/31 01:09:40;;;;;;;13.30;4.88;;;;;;;17.04;nan;99842.19;5026313;28;20022;-70
2023/08/31 01:12:15;;;;;;;7.47;5.53;;;;;;;17.09;nan;99858.88;5025745;28;20049;-69
2023/08/31 01:14:59;;;;;;;9.40;5.50;;;;;;;17.07;nan;99866.38;5027477;28;20036;-69
2023/08/31 01:17:28;;;;;;;5.85;4.85;;;;;;;17.00;nan;99861.38;5025290;28;20565;-72
2023/08/31 01:19:55;;;;;;;5.60;4.93;;;;;;;16.91;nan;99847.09;5028316;28;20029;-71
2023/08/31 01:22:37;;;;;;;8.30;5.47;;;;;;;16.89;nan;99851.13;5008942;28;20038;-71
2023/08/31 01:25:04;;;;;;;8.55;5.63;;;;;;;16.94;nan;99872.34;5024419;28;20087;-70
2023/08/31 01:27:33;;;;;;;6.95;5.38;;;;;;;16.86;nan;99870.31;5008817;28;20022;-71
2023/08/31 01:29:58;;;;;;;11.13;5.35;;;;;;;16.88;nan;99890.22;5009591;28;20029;-69
2023/08/31 01:32:24;;;;;;;7.50;6.18;;;;;;;16.88;nan;99886.75;5025690;28;20042;-71
2023/08/31 01:34:53;;;;;;;8.02;6.07;;;;;;;16.87;nan;99901.13;5027557;28;20021;-70
2023/08/31 01:37:31;;;;;;;9.15;5.10;;;;;;;16.80;nan;99883.63;5028409;28;20029;-71
2023/08/31 01:40:01;;;;;;;9.90;6.30;;;;;;;16.69;nan;99874.13;5027625;28;20064;-71
2023/08/31 01:42:28;;;;;;;7.97;5.78;;;;;;;16.68;nan;99875.19;5028320;28;20525;-70
2023/08/31 01:44:56;;;;;;;7.43;6.03;;;;;;;16.68;nan;99877.84;5026558;28;20040;-70
2023/08/31 01:47:21;;;;;;;11.18;6.00;;;;;;;16.72;nan;99883.41;5026402;28;20041;-71
2023/08/31 01:49:47;;;;;;;9.07;6.07;;;;;;;16.65;nan;99878.41;5024897;28;20033;-71
2023/08/31 01:52:12;;;;;;;9.82;5.88;;;;;;;16.69;nan;99887.41;5028049;28;20025;-72
2023/08/31 01:54:38;;;;;;;12.98;6.57;;;;;;;16.69;nan;99892.75;5025788;28;20044;-72
2023/08/31 01:57:04;;;;;;;9.40;6.40;;;;;;;16.72;nan;99902.81;5009677;28;20472;-69
2023/08/31 01:59:29;;;;;;;7.32;6.43;;;;;;;16.70;nan;99894.31;5008985;28;20025;-70
2023/08/31 02:01:55;;;;;;;9.05;6.40;;;;;;;16.69;nan;99900.72;5009476;28;20507;-69
2023/08/31 02:04:20;;;;;;;8.35;6.55;;;;;;;16.69;nan;99908.69;5013742;28;20036;-69
2023/08/31 02:06:45;;;;;;;8.27;6.43;;;;;;;16.66;nan;99898.59;5026283;28;20017;-74
2023/08/31 02:09:13;;;;;;;9.75;6.63;;;;;;;16.65;nan;99894.34;5027270;28;20053;-70
2023/08/31 02:11:39;;;;;;;12.05;6.53;;;;;;;16.53;nan;99872.66;5008517;28;20368;-70
2023/08/31 02:14:07;;;;;;;13.02;6.90;;;;;;;16.65;nan;99886.38;5007920;28;20107;-69
2023/08/31 02:16:33;;;;;;;7.53;6.45;;;;;;;16.63;nan;99887.72;5009454;28;20029;-69
2023/08/31 02:18:59;;;;;;;9.82;6.68;;;;;;;16.66;nan;99893.28;5024943;28;20031;-69
2023/08/31 02:21:24;;;;;;;10.40;7.00;;;;;;;16.66;nan;99893.28;5008505;28;20061;-69
2023/08/31 02:23:50;;;;;;;9.55;6.90;;;;;;;16.61;nan;99880.03;5023645;28;20044;-69
2023/08/31 02:26:15;;;;;;;9.65;6.90;;;;;;;16.60;nan;99875.78;5026718;28;20029;-69
2023/08/31 02:28:40;;;;;;;8.82;6.40;;;;;;;16.65;nan;99885.59;5027711;28;20025;-71
2023/08/31 02:31:06;;;;;;;9.75;7.22;;;;;;;16.65;nan;99890.91;5024780;28;20041;-71
2023/08/31 02:33:31;;;;;;;11.45;7.68;;;;;;;16.65;nan;99894.34;5026208;28;20025;-70
2023/08/31 02:35:57;;;;;;;11.73;6.88;;;;;;;16.67;nan;99910.03;5025335;28;20028;-72
2023/08/31 02:38:22;;;;;;;10.80;7.55;;;;;;;16.64;nan;99908.72;5004999;28;20388;-71
2023/08/31 02:40:48;;;;;;;10.20;6.85;;;;;;;16.56;nan;99896.81;5024195;28;20125;-71
2023/08/31 02:43:14;;;;;;;9.77;6.95;;;;;;;16.61;nan;99911.13;5021466;28;20030;-72
2023/08/31 02:45:39;;;;;;;7.50;6.43;;;;;;;16.47;nan;99892.34;5016603;28;20079;-71
2023/08/31 02:48:08;;;;;;;9.95;6.30;;;;;;;16.52;nan;99909.06;5000508;28;20020;-72
2023/08/31 02:50:37;;;;;;;10.75;6.60;;;;;;;16.52;nan;99908.25;5024657;28;20030;-71
2023/08/31 02:53:03;;;;;;;11.38;6.57;;;;;;;16.57;nan;99926.84;5025262;28;20034;-72
2023/08/31 02:55:28;;;;;;;9.77;6.32;;;;;;;16.52;nan;99921.53;5025681;28;20033;-71
2023/08/31 02:57:54;;;;;;;7.88;5.70;;;;;;;16.48;nan;99925.84;5025610;28;20057;-72
2023/08/31 03:00:21;;;;;;;9.55;6.05;;;;;;;16.50;nan;99929.81;5026421;28;20418;-71
2023/08/31 03:02:51;;;;;;;12.40;6.95;;;;;;;16.45;nan;99924.53;5026227;28;20092;-71
2023/08/31 03:05:17;;;;;;;7.30;5.85;;;;;;;16.35;nan;99909.44;5025446;28;20127;-72
2023/08/31 03:07:43;;;;;;;10.77;5.80;;;;;;;16.37;nan;99911.81;5025044;28;20092;-71
2023/08/31 03:10:09;;;;;;;7.75;5.68;;;;;;;16.40;nan;99915.78;5023804;28;20506;-70
2023/08/31 03:12:34;;;;;;;6.57;5.10;;;;;;;16.35;nan;99920.06;5025976;28;20053;-71
2023/08/31 03:15:00;;;;;;;9.18;5.82;;;;;;;16.34;nan;99920.34;5025015;28;20099;-71
2023/08/31 03:17:25;;;;;;;7.55;5.88;;;;;;;16.30;nan;99932.56;5026221;28;20033;-70
2023/08/31 03:19:50;;;;;;;12.77;5.90;;;;;;;16.29;nan;99931.00;5025417;28;20026;-69
2023/08/31 03:22:16;;;;;;;7.55;5.60;;;;;;;16.18;nan;99914.31;5026384;28;20306;-70
2023/08/31 03:24:41;;;;;;;8.88;5.63;;;;;;;16.22;nan;99933.16;5026618;28;20716;-74
2023/08/31 03:27:07;;;;;;;10.20;5.88;;;;;;;16.13;nan;99943.56;5025294;28;20698;-74
2023/08/31 03:29:32;;;;;;;9.05;6.15;;;;;;;16.04;nan;99924.75;5026456;28;20024;-74
2023/08/31 03:32:00;;;;;;;8.48;5.53;;;;;;;16.09;nan;99948.63;5026717;28;20053;-74
2023/08/31 03:34:31;;;;;;;8.90;6.45;;;;;;;16.14;nan;99961.09;5024733;28;20471;-74
2023/08/31 03:37:00;;;;;;;10.65;6.00;;;;;;;16.13;nan;99972.78;5025563;28;20032;-74
2023/08/31 03:39:25;;;;;;;10.03;6.47;;;;;;;16.08;nan;99967.47;5008025;28;20167;-74
2023/08/31 03:41:51;;;;;;;9.50;6.18;;;;;;;16.02;nan;99963.25;5026016;28;20103;-74
2023/08/31 03:44:16;;;;;;;11.23;6.18;;;;;;;16.06;nan;99980.25;5025162;28;20463;-74
2023/08/31 03:46:42;;;;;;;8.52;6.10;;;;;;;15.99;nan;99969.09;5011575;28;20029;-74
2023/08/31 03:49:07;;;;;;;10.93;6.10;;;;;;;16.02;nan;99977.34;5029988;28;20484;-74
2023/08/31 03:51:33;;;;;;;6.50;5.63;;;;;;;16.01;nan;99975.75;5030380;28;20029;-74
2023/08/31 03:53:58;;;;;;;12.95;5.55;;;;;;;15.98;nan;99978.94;5011622;28;20021;-75
2023/08/31 03:56:24;;;;;;;10.75;6.25;;;;;;;16.04;nan;99988.50;5029970;28;20037;-75
2023/08/31 03:58:49;;;;;;;8.88;6.55;;;;;;;16.05;nan;99995.38;5028962;28;20025;-74
2023/08/31 04:01:14;;;;;;;8.57;6.57;;;;;;;16.07;nan;100003.09;5027748;28;20038;-73
2023/08/31 04:03:41;;;;;;;10.15;6.55;;;;;;;15.99;nan;99991.13;5028774;28;20527;-75
2023/08/31 04:06:07;;;;;;;9.00;6.35;;;;;;;16.03;nan;100008.13;5028390;28;20025;-73
2023/08/31 04:08:32;;;;;;;8.73;6.72;;;;;;;16.07;nan;100001.22;5029830;28;20485;-73
2023/08/31 04:10:58;;;;;;;9.95;6.63;;;;;;;16.04;nan;99985.84;5029015;28;20495;-73
2023/08/31 04:13:23;;;;;;;13.77;6.47;;;;;;;16.09;nan;100006.25;5027756;28;20193;-74
2023/08/31 04:15:49;;;;;;;9.90;7.25;;;;;;;16.06;nan;100007.59;5009469;28;20029;-73
2023/08/31 04:18:14;;;;;;;9.73;6.43;;;;;;;16.08;nan;100002.00;5028343;28;20051;-73
2023/08/31 04:20:48;;;;;;;10.07;6.20;;;;;;;15.91;nan;99976.56;5029241;28;20466;-73
2023/08/31 04:23:13;;;;;;;9.23;6.45;;;;;;;16.11;nan;99996.16;5028260;28;20033;-73
2023/08/31 04:25:39;;;;;;;9.90;6.15;;;;;;;16.10;nan;100005.19;5009809;28;20022;-74
2023/08/31 04:28:04;;;;;;;9.95;5.85;;;;;;;16.02;nan;99987.16;5028932;28;20029;-73
2023/08/31 04:30:31;;;;;;;9.98;7.03;;;;;;;16.07;nan;100001.22;5029019;28;20052;-71
2023/08/31 04:32:56;;;;;;;8.40;6.00;;;;;;;16.04;nan;100003.63;5025117;28;20025;-71
2023/08/31 04:35:21;;;;;;;9.50;6.43;;;;;;;15.84;nan;99976.06;5027353;28;20026;-70
2023/08/31 04:37:47;;;;;;;9.77;6.57;;;;;;;16.03;nan;100010.78;5030049;28;20100;-71
2023/08/31 04:40:12;;;;;;;8.07;5.90;;;;;;;16.12;nan;100022.47;5011215;28;20072;-72
2023/08/31 04:42:38;;;;;;;11.25;6.70;;;;;;;16.10;nan;100023.78;5025838;28;20550;-70
2023/08/31 04:45:04;;;;;;;9.18;6.72;;;;;;;16.06;nan;100020.06;5025577;28;20057;-71
2023/08/31 04:47:29;;;;;;;13.57;6.82;;;;;;;16.09;nan;100033.63;5029454;28;20472;-71
2023/08/31 04:49:55;;;;;;;10.43;6.55;;;;;;;16.07;nan;100029.66;5029661;28;20391;-71
2023/08/31 04:52:21;;;;;;;9.52;6.50;;;;;;;16.13;nan;100044.50;5012568;28;20029;-71
2023/08/31 04:54:46;;;;;;;8.80;6.53;;;;;;;16.06;nan;100034.16;5025230;28;20025;-71
2023/08/31 04:57:15;;;;;;;10.82;6.85;;;;;;;16.17;nan;100054.31;5024267;28;20061;-68
2023/08/31 04:59:40;;;;;;;10.50;7.33;;;;;;;16.08;nan;100036.53;5027798;28;20037;-69
2023/08/31 05:02:05;;;;;;;11.45;6.93;;;;;;;16.15;nan;100037.06;5009055;28;20033;-69
2023/08/31 05:04:31;;;;;;;10.20;7.63;;;;;;;16.21;nan;100057.25;5027688;28;20029;-70
2023/08/31 05:06:56;;;;;;;10.70;8.32;;;;;;;16.12;nan;100034.94;5029177;28;20013;-70
2023/08/31 05:09:24;;;;;;;17.00;9.68;;;;;;;16.20;nan;100045.00;5026207;28;20045;-71
2023/08/31 05:11:49;;;;;;;14.65;8.98;;;;;;;16.14;nan;100027.50;5027458;28;20049;-70
2023/08/31 05:14:15;;;;;;;18.00;10.40;;;;;;;16.21;nan;100041.28;5027225;28;20107;-69
2023/08/31 05:16:40;;;;;;;22.73;12.55;;;;;;;16.26;nan;100049.25;5028906;28;20029;-72
2023/08/31 05:19:06;;;;;;;28.58;18.10;;;;;;;16.29;nan;100048.69;5006379;28;20490;-72
2023/08/31 05:21:31;;;;;;;25.42;14.77;;;;;;;16.30;nan;100050.28;5027146;28;20620;-72
2023/08/31 05:23:56;;;;;;;21.98;14.35;;;;;;;16.29;nan;100053.22;5025953;28;20387;-72
2023/08/31 05:26:22;;;;;;;21.08;13.05;;;;;;;16.28;nan;100056.94;5025917;28;20026;-71
2023/08/31 05:28:48;;;;;;;24.88;13.60;;;;;;;16.27;nan;100052.69;5028434;28;20459;-69
2023/08/31 05:31:13;;;;;;;22.65;14.25;;;;;;;16.35;nan;100060.09;5029326;28;20045;-71
2023/08/31 05:33:38;;;;;;;21.80;14.77;;;;;;;16.30;nan;100049.50;5026162;28;20033;-70
2023/08/31 05:36:04;;;;;;;24.20;15.00;;;;;;;16.28;nan;100055.09;5027995;28;20080;-70
2023/08/31 05:38:29;;;;;;;26.58;15.68;;;;;;;16.36;nan;100061.69;5027279;28;20030;-70
2023/08/31 05:41:09;;;;;;;30.30;16.00;;;;;;;16.46;nan;100085.56;5011084;28;20113;-70
2023/08/31 05:43:36;;;;;;;29.77;18.55;;;;;;;16.41;nan;100076.84;5026770;28;20029;-71
2023/08/31 05:46:01;;;;;;;28.92;17.45;;;;;;;16.48;nan;100087.97;5005807;28;20495;-71
2023/08/31 05:48:27;;;;;;;28.60;16.95;;;;;;;16.42;nan;100078.41;5026929;28;20041;-70
2023/08/31 05:50:53;;;;;;;25.70;16.67;;;;;;;16.45;nan;100078.69;5004895;28;20033;-70
2023/08/31 05:53:19;;;;;;;25.13;16.90;;;;;;;16.52;nan;100092.47;5024872;28;20045;-70
2023/08/31 05:55:44;;;;;;;29.15;19.42;;;;;;;16.49;nan;100084.22;5026211;28;20064;-71
2023/08/31 05:58:09;;;;;;;27.30;17.80;;;;;;;16.56;nan;100098.03;5026485;28;20112;-71
2023/08/31 06:00:35;;;;;;;29.25;18.73;;;;;;;16.59;nan;100106.28;5026257;28;20100;-71
2023/08/31 06:03:03;;;;;;;30.88;18.50;;;;;;;16.65;nan;100108.91;5026530;28;20025;-71
2023/08/31 06:05:30;;;;;;;30.45;17.02;;;;;;;16.63;nan;100103.06;5025404;28;20124;-70
2023/08/31 06:07:56;;;;;;;32.35;18.17;;;;;;;16.67;nan;100104.91;5026954;28;20026;-71
2023/08/31 06:10:23;;;;;;;31.30;18.20;;;;;;;16.62;nan;100082.84;5024061;28;20044;-72
2023/08/31 06:12:48;;;;;;;28.15;18.02;;;;;;;16.64;nan;100100.13;5023320;28;20041;-72
2023/08/31 06:15:15;;;;;;;30.17;17.45;;;;;;;16.62;nan;100102.28;5027177;28;20033;-71
2023/08/31 06:17:41;;;;;;;27.48;17.55;;;;;;;16.70;nan;100115.00;5024817;28;21476;-71
2023/08/31 06:20:08;;;;;;;28.27;17.10;;;;;;;16.70;nan;100109.66;5007062;28;20036;-70
2023/08/31 06:22:33;;;;;;;28.27;16.98;;;;;;;16.72;nan;100112.06;5023370;28;20036;-69
2023/08/31 06:24:59;;;;;;;27.30;16.88;;;;;;;16.73;nan;100103.78;5026843;28;20029;-70
2023/08/31 06:27:25;;;;;;;26.65;17.25;;;;;;;16.75;nan;100104.31;5006917;28;20048;-71
2023/08/31 06:29:50;;;;;;;30.25;17.90;;;;;;;16.83;nan;100115.50;5027436;28;20017;-71
2023/08/31 06:32:16;;;;;;;28.83;18.13;;;;;;;16.92;nan;100122.63;5026133;28;20025;-70
2023/08/31 06:34:42;;;;;;;27.73;17.85;;;;;;;16.98;nan;100132.19;5026816;28;20029;-71
2023/08/31 06:37:07;;;;;;;28.13;18.30;;;;;;;17.00;nan;100132.72;5026542;28;20029;-70
2023/08/31 06:39:33;;;;;;;30.92;18.95;;;;;;;17.04;nan;100132.16;5026559;28;20462;-71
2023/08/31 06:41:59;;;;;;;28.83;18.38;;;;;;;17.07;nan;100136.91;5025488;28;20028;-70
2023/08/31 06:44:24;;;;;;;23.58;17.23;;;;;;;17.08;nan;100133.19;5026943;28;20030;-71
2023/08/31 06:46:49;;;;;;;26.63;18.05;;;;;;;17.01;nan;100128.19;5026258;28;20033;-71
2023/08/31 06:49:15;;;;;;;27.83;17.98;;;;;;;17.06;nan;100133.47;5026056;28;20029;-71
2023/08/31 06:51:40;;;;;;;28.75;18.20;;;;;;;17.15;nan;100150.44;5007303;28;20472;-70
2023/08/31 06:54:06;;;;;;;28.25;18.15;;;;;;;17.19;nan;100150.69;5021219;28;20072;-71
2023/08/31 06:56:35;;;;;;;45.92;30.02;;;;;;;17.26;nan;100158.38;5023985;28;20053;-71
2023/08/31 06:59:00;;;;;;;;;;;;;;;;;;5024983;28;20017;-70
2023/08/31 07:01:27;;;;;;;27.77;17.50;;;;;;;;;;5004862;28;20541;-72
2023/08/31 07:03:52;;;;;;;25.25;16.88;;;;;;;;;;5026985;28;20021;-71
2023/08/31 07:06:18;;;;;;;23.80;16.00;;;;;;;;;;5007410;28;20497;-71
2023/08/31 07:08:45;;;;;;;22.67;15.53;;;;;;;17.34;nan;100093.94;5008225;28;20059;-71
2023/08/31 07:11:10;;;;;;;20.88;15.57;;;;;;;17.36;nan;100168.97;5025133;28;20443;-74
2023/08/31 07:13:36;;;;;;;23.90;15.38;;;;;;;17.43;nan;100177.44;5025163;28;20049;-74
2023/08/31 07:16:02;;;;;;;22.48;16.08;;;;;;;17.47;nan;100175.00;5024670;28;20385;-71
2023/08/31 07:18:27;;;;;;;21.17;14.30;;;;;;;17.49;nan;100173.66;5026357;28;20087;-71
2023/08/31 07:20:52;;;;;;;25.05;15.38;;;;;;;17.57;nan;100199.69;5027756;28;20021;-71
2023/08/31 07:23:18;;;;;;;22.65;16.45;;;;;;;17.60;nan;100201.03;5028430;28;20052;-72
2023/08/31 07:25:43;;;;;;;19.17;15.25;;;;;;;17.62;nan;100198.88;5027819;28;20479;-70
2023/08/31 07:28:09;;;;;;;20.63;14.82;;;;;;;17.70;nan;100210.81;5030731;28;20029;-70
2023/08/31 07:30:34;;;;;;;20.63;13.95;;;;;;;17.70;nan;100213.47;5028216;28;20110;-71
2023/08/31 07:33:03;;;;;;;20.38;14.35;;;;;;;17.71;nan;100209.75;5029973;28;20022;-71
2023/08/31 07:35:29;;;;;;;17.95;13.48;;;;;;;17.75;nan;100210.78;5027886;28;20104;-71
2023/08/31 07:37:54;;;;;;;19.38;13.80;;;;;;;17.69;nan;100202.00;5029220;28;20104;-70
2023/08/31 07:40:19;;;;;;;21.73;14.90;;;;;;;;;;5029614;28;20493;-71
2023/08/31 07:42:44;;;;;;;20.87;14.70;;;;;;;;;;5011986;28;20017;-73
2023/08/31 07:45:10;;;;;;;21.20;15.18;;;;;;;;;;5011491;28;20029;-70
2023/08/31 07:47:35;;;;;;;19.93;15.20;;;;;;;17.89;nan;100203.00;5027612;28;20052;-70
2023/08/31 07:50:01;;;;;;;18.65;14.60;;;;;;;17.97;nan;100200.50;5027133;28;20290;-71
2023/08/31 07:52:26;;;;;;;19.50;14.73;;;;;;;17.95;nan;100202.66;5027381;28;20143;-70
2023/08/31 07:54:52;;;;;;;20.90;14.45;;;;;;;18.05;nan;100207.09;5010147;28;20025;-71
2023/08/31 07:57:17;;;;;;;20.27;14.80;;;;;;;18.04;nan;100206.31;5029662;28;20108;-72
2023/08/31 07:59:42;;;;;;;19.90;14.38;;;;;;;18.13;nan;100217.19;5025287;28;20030;-71
2023/08/31 08:02:08;;;;;;;21.10;14.85;;;;;;;18.14;nan;100217.97;5011798;28;20025;-71
2023/08/31 08:04:33;;;;;;;22.00;14.82;;;;;;;18.20;nan;100225.66;5029380;28;20033;-71
2023/08/31 08:06:58;;;;;;;20.27;14.13;;;;;;;18.25;nan;100230.13;5031085;28;20032;-71
2023/08/31 08:09:24;;;;;;;20.10;14.00;;;;;;;18.29;nan;100236.47;5011693;28;20113;-71
2023/08/31 08:11:50;;;;;;;18.75;14.13;;;;;;;18.30;nan;100184.78;5009877;28;20500;-71
2023/08/31 08:14:16;;;;;;;18.38;14.23;;;;;;;18.27;nan;100238.66;5011209;28;20032;-71
2023/08/31 08:16:42;;;;;;;21.08;15.18;;;;;;;18.41;nan;100191.59;5010197;28;20553;-71
2023/08/31 08:19:07;;;;;;;18.00;13.45;;;;;;;18.42;nan;100190.53;5027727;28;20137;-71
2023/08/31 08:21:33;;;;;;;19.13;14.10;;;;;;;18.48;nan;100196.59;5029512;28;20480;-70
2023/08/31 08:23:58;;;;;;;20.30;14.07;;;;;;;;;;5028463;28;20032;-70
2023/08/31 08:26:24;;;;;;;15.17;12.00;;;;;;;;;;5025960;28;20033;-70
2023/08/31 08:28:49;;;;;;;18.43;13.63;;;;;;;;;;5011874;28;20032;-71
2023/08/31 08:31:15;;;;;;;20.00;14.07;;;;;;;18.62;nan;100188.72;5029705;28;20033;-70
2023/08/31 08:33:40;;;;;;;17.40;13.02;;;;;;;18.69;nan;100189.94;5003138;28;20018;-69
2023/08/31 08:36:05;;;;;;;18.60;13.73;;;;;;;18.75;nan;100197.91;5030220;28;20021;-69
2023/08/31 08:38:31;;;;;;;18.70;13.15;;;;;;;18.85;nan;100123.13;5010140;28;20025;-70
2023/08/31 08:40:56;;;;;;;17.63;13.55;;;;;;;18.97;nan;100203.56;5028595;28;20025;-69
2023/08/31 08:43:26;;;;;;;15.88;12.63;;;;;;;19.08;nan;100196.19;5029031;28;20112;-68
2023/08/31 08:45:52;;;;;;;17.50;13.05;;;;;;;19.17;nan;100189.16;5029745;28;20057;-68
2023/08/31 08:48:19;;;;;;;17.48;13.25;;;;;;;19.26;nan;100184.75;5028766;28;20026;-69
2023/08/31 08:50:45;;;;;;;19.10;13.10;;;;;;;19.57;nan;100269.78;5010018;28;20052;-70
2023/08/31 08:53:11;;;;;;;21.08;12.40;;;;;;;19.24;nan;100205.59;5010159;28;20455;-70
2023/08/31 08:55:37;;;;;;;17.92;12.60;;;;;;;19.52;nan;100240.50;5027855;28;20095;-70
2023/08/31 08:58:05;;;;;;;16.98;12.02;;;;;;;19.60;nan;100242.50;5026984;28;20028;-68
2023/08/31 09:00:32;;;;;;;16.13;12.83;;;;;;;19.65;nan;100250.44;5026419;28;20029;-71
2023/08/31 09:02:59;;;;;;;17.50;12.70;;;;;;;19.69;nan;100251.50;5027595;28;20106;-70
2023/08/31 09:05:25;;;;;;;16.75;12.70;;;;;;;19.71;nan;100253.88;5027823;28;20049;-70
2023/08/31 09:08:02;;;;;;;14.95;12.50;;;;;;;19.76;nan;100259.94;5028544;28;20037;-71
2023/08/31 09:10:35;;;;;;;18.88;13.10;;;;;;;19.82;nan;100257.19;5007925;28;20561;-70
2023/08/31 09:13:01;;;;;;;16.58;12.63;;;;;;;19.89;nan;100262.97;5025452;28;20060;-72
2023/08/31 09:15:36;;;;;;;14.52;11.05;;;;;;;19.93;nan;100253.28;5007755;28;20022;-69
2023/08/31 09:18:02;;;;;;;18.58;12.00;;;;;;;20.09;nan;100259.97;5027796;28;20044;-69
2023/08/31 09:20:28;;;;;;;14.98;11.02;;;;;;;20.15;nan;100266.03;5009526;28;20309;-69
2023/08/31 09:22:56;;;;;;;14.75;10.90;;;;;;;20.27;nan;100268.25;5027526;28;20090;-69
2023/08/31 09:25:21;;;;;;;15.32;11.32;;;;;;;20.16;nan;100246.22;5025879;28;20029;-71
2023/08/31 09:27:47;;;;;;;12.15;10.00;;;;;;;20.21;nan;100251.50;5026837;28;20091;-69
2023/08/31 09:30:13;;;;;;;14.75;11.35;;;;;;;20.26;nan;100253.31;5026627;28;20049;-74
2023/08/31 09:32:38;;;;;;;13.93;10.57;;;;;;;20.32;nan;100257.47;5028183;28;20025;-73
2023/08/31 09:35:08;;;;;;;12.60;10.45;;;;;;;20.34;nan;100266.00;5025362;28;20407;-74
2023/08/31 09:37:34;;;;;;;13.77;10.25;;;;;;;20.30;nan;100264.97;5028775;28;20030;-73
2023/08/31 09:40:04;;;;;;;12.57;9.82;;;;;;;20.27;nan;100255.66;5025951;28;20415;-72
2023/08/31 09:42:38;;;;;;;17.02;9.73;;;;;;;20.33;nan;100267.09;5026414;28;20069;-73
2023/08/31 09:45:03;;;;;;;14.27;10.60;;;;;;;20.38;nan;100265.13;5026355;28;20025;-73
2023/08/31 09:47:32;;;;;;;11.75;10.35;;;;;;;20.43;nan;100266.91;5027167;28;20029;-72
2023/08/31 09:49:58;;;;;;;14.48;10.02;;;;;;;20.46;nan;100270.88;5026127;28;20107;-72
2023/08/31 09:52:25;;;;;;;11.23;10.00;;;;;;;20.56;nan;100273.41;5027199;28;20045;-72
2023/08/31 09:54:53;;;;;;;12.43;9.63;;;;;;;20.56;nan;100263.47;5025574;28;20037;-72
2023/08/31 09:57:20;;;;;;;17.75;10.50;;;;;;;20.60;nan;100263.69;5023391;28;20543;-72
2023/08/31 09:59:46;;;;;;;13.55;10.15;;;;;;;20.73;nan;100267.47;5025341;28;20843;-72
2023/08/31 10:02:13;;;;;;;13.93;10.32;;;;;;;20.72;nan;100271.25;5027086;28;20021;-71
2023/08/31 10:04:39;;;;;;;11.52;9.00;;;;;;;20.78;nan;100270.06;5026024;28;20520;-71
2023/08/31 10:07:06;;;;;;;10.25;8.48;;;;;;;20.73;nan;100262.13;5027518;28;20321;-72
2023/08/31 10:09:32;;;;;;;11.13;9.88;;;;;;;20.81;nan;100269.47;5009409;28;20040;-71
2023/08/31 10:11:58;;;;;;;9.52;8.52;;;;;;;20.76;nan;100262.34;5026941;28;20681;-71
2023/08/31 10:14:24;;;;;;;11.27;9.38;;;;;;;20.69;nan;100240.53;5026305;28;20033;-70
2023/08/31 10:16:52;;;;;;;12.82;10.00;;;;;;;20.94;nan;100273.25;5024616;28;20028;-69
2023/08/31 10:19:18;;;;;;;14.20;8.60;;;;;;;20.80;nan;100244.56;5026165;28;20044;-69
2023/08/31 10:21:44;;;;;;;12.10;8.63;;;;;;;21.04;nan;100281.06;5008368;28;20030;-69
2023/08/31 10:24:09;;;;;;;10.55;8.70;;;;;;;21.02;nan;100273.34;5024656;28;20033;-69
2023/08/31 10:26:35;;;;;;;11.48;8.90;;;;;;;21.09;nan;100280.19;5025942;28;20037;-70
2023/08/31 10:29:02;;;;;;;15.30;10.02;;;;;;;21.04;nan;100273.03;5026516;28;20040;-69
2023/08/31 10:31:32;;;;;;;13.13;9.00;;;;;;;21.18;nan;100281.84;5026752;28;20033;-71
2023/08/31 10:34:09;;;;;;;11.43;8.23;;;;;;;21.22;nan;100290.09;5023270;28;20052;-69
2023/08/31 10:36:39;;;;;;;10.50;8.10;;;;;;;21.31;nan;100290.19;5024795;28;20041;-71
2023/08/31 10:39:13;;;;;;;10.32;7.88;;;;;;;21.33;nan;100278.06;5007929;28;20045;-71
2023/08/31 10:41:39;;;;;;;8.38;6.85;;;;;;;21.42;nan;100276.31;5024174;28;20026;-71
2023/08/31 10:44:22;;;;;;;7.72;6.70;;;;;;;21.60;nan;100292.56;5026543;28;20033;-70
2023/08/31 10:46:48;;;;;;;8.77;6.68;;;;;;;21.64;nan;100291.66;5027009;28;20041;-74
2023/08/31 10:49:15;;;;;;;9.45;6.55;;;;;;;21.72;nan;100286.69;5025109;28;20029;-73
2023/08/31 10:51:42;;;;;;;8.05;6.63;;;;;;;21.84;nan;100295.00;5024286;28;20017;-74
2023/08/31 10:54:19;;;;;;;12.68;6.97;;;;;;;21.93;nan;100287.00;5026530;28;20383;-74
2023/08/31 10:57:00;;;;;;;10.35;6.43;;;;;;;21.70;nan;100241.41;5024251;28;20475;-76
2023/08/31 10:59:26;;;;;;;10.27;7.25;;;;;;;22.07;nan;100293.09;5023858;28;20122;-74
2023/08/31 11:01:55;;;;;;;6.32;5.70;;;;;;;22.18;nan;100288.31;5026590;28;20087;-73
2023/08/31 11:04:21;;;;;;;8.30;6.83;;;;;;;22.21;nan;100283.13;5007085;28;20395;-74
2023/08/31 11:06:47;;;;;;;6.82;6.13;;;;;;;22.36;nan;100278.50;5024132;28;20263;-74
2023/08/31 11:09:20;;;;;;;8.02;6.20;;;;;;;22.40;nan;100274.88;5024815;28;20028;-73
2023/08/31 11:11:47;;;;;;;8.35;6.45;;;;;;;22.51;nan;100283.47;5004547;28;20087;-74
2023/08/31 11:14:12;;;;;;;6.75;6.05;;;;;;;22.63;nan;100289.06;5017101;28;20390;-70
2023/08/31 11:16:38;;;;;;;6.82;6.05;;;;;;;22.68;nan;100293.50;5024397;28;20040;-72
2023/08/31 11:19:04;;;;;;;7.63;5.95;;;;;;;22.71;nan;100292.88;5023724;28;20440;-72
2023/08/31 11:21:31;;;;;;;8.07;5.25;;;;;;;22.66;nan;100285.75;5024415;28;20125;-73
2023/08/31 11:23:58;;;;;;;9.55;5.97;;;;;;;22.55;nan;100259.50;5006453;28;20041;-71
2023/08/31 11:26:28;;;;;;;8.48;6.05;;;;;;;22.79;nan;100286.75;5011171;28;20021;-72
2023/08/31 11:28:56;;;;;;;8.57;5.75;;;;;;;22.77;nan;100283.63;4999438;28;20040;-72
2023/08/31 11:31:25;;;;;;;6.32;5.38;;;;;;;22.64;nan;100257.66;5025054;28;20022;-72
2023/08/31 11:33:50;;;;;;;7.40;5.45;;;;;;;22.92;nan;100290.47;5023777;28;20025;-72
2023/08/31 11:36:18;;;;;;;6.03;5.43;;;;;;;22.93;nan;100286.66;5024865;28;20052;-72
2023/08/31 11:38:44;;;;;;;10.88;5.38;;;;;;;22.85;nan;100266.72;5021567;28;20029;-71